Taiki Maru — JI3464 — position and weather

sailwx.info

Track history (hours):
 
Tides and Currents Weather Stations Pressure Air Temp Water Temp Dewpoint Dewpoint Depression Visibility Wind Speed Wind Dir Waves Ship Positions

Taiki Maru

Last reported at 2017-Apr-27 02:53 UTC. Time now 2017-Apr-29 05:36 UTC.
Position N 34°06' E 135°02'.

Length 93 m; draft 7.2 m.

Type: Cargo ship. MMSI: 431300622.

Date/timePositionNaut miles runAvg speedWind from/ knotsBaromVisibWave heightAir tempDewpointWater temp
2017-Apr-27 02:53N 34°06' E 135°02'512.3
2017-Apr-27 02:30N 34°10' E 135°05'1 3.0
2017-Apr-27 02:00N 34°10' E 135°07'0 0.1
2017-Apr-27 01:30N 34°10' E 135°07'0 0.2
2017-Apr-27 01:00N 34°10' E 135°07'4 7.6
2017-Apr-27 00:31N 34°14' E 135°05'2 4.0
2017-Apr-26 23:59N 34°14' E 135°08'0 0.1
2017-Apr-26 23:29N 34°14' E 135°08'0 0.1
2017-Apr-26 22:59N 34°14' E 135°08'0 0.0
2017-Apr-26 22:29N 34°14' E 135°08'0 0.0
2017-Apr-26 21:59N 34°14' E 135°08'0 0.0
2017-Apr-26 21:29N 34°14' E 135°08'0 0.0
2017-Apr-26 20:59N 34°14' E 135°08'0 0.0
2017-Apr-26 20:29N 34°14' E 135°08'0 0.0
2017-Apr-26 19:59N 34°14' E 135°08'0 0.0
2017-Apr-26 19:29N 34°14' E 135°08'0 0.0
2017-Apr-26 18:59N 34°14' E 135°08'0 0.0
2017-Apr-26 18:29N 34°14' E 135°08'0 0.0
2017-Apr-26 17:59N 34°14' E 135°08'0 0.0
2017-Apr-26 17:29N 34°14' E 135°08'0 0.0
2017-Apr-26 16:59N 34°14' E 135°08'0 0.0
2017-Apr-26 16:30N 34°14' E 135°08'1 1.5
2017-Apr-26 16:01N 34°14' E 135°07'3 6.6
2017-Apr-26 15:30N 34°11' E 135°07'0 0.0
2017-Apr-26 14:59N 34°11' E 135°07'0 0.0
2017-Apr-26 14:29N 34°11' E 135°07'0 0.0
2017-Apr-26 13:29N 34°11' E 135°07'0 0.1
2017-Apr-26 12:59N 34°11' E 135°07'0 0.1
2017-Apr-26 12:29N 34°11' E 135°07'0 0.0
2017-Apr-26 11:53N 34°11' E 135°07'0 0.0
2017-Apr-26 11:26N 34°11' E 135°07'0 0.0
2017-Apr-26 10:59N 34°11' E 135°07'0 0.0
2017-Apr-26 10:29N 34°11' E 135°07'0 0.0
2017-Apr-26 09:56N 34°11' E 135°07'0 0.1
2017-Apr-26 09:26N 34°11' E 135°07'0 0.0
2017-Apr-26 09:00N 34°11' E 135°07'0 0.8
2017-Apr-26 08:30N 34°11' E 135°06'612.3
2017-Apr-26 08:00N 34°15' E 135°00'1413.2
2017-Apr-26 06:58N 34°28' E 135°02'613.1
2017-Apr-26 06:30N 34°34' E 135°03'613.1
2017-Apr-26 06:00N 34°36' E 134°56'  
2017-Apr-23 05:35N 34°38' E 134°60'110.4
2017-Apr-23 05:29N 34°37' E 135°01'4 9.3
2017-Apr-23 05:00N 34°35' E 135°05'611.5
2017-Apr-23 04:30N 34°29' E 135°04'711.6
2017-Apr-23 03:56N 34°23' E 135°02'710.5
2017-Apr-23 03:17N 34°16' E 134°59'310.9
2017-Apr-23 03:01N 34°15' E 135°03'4 8.7
2017-Apr-23 02:31N 34°14' E 135°08'0 0.1
2017-Apr-23 01:59N 34°14' E 135°08'0 0.1
2017-Apr-23 01:29N 34°14' E 135°08'0 0.1
2017-Apr-23 00:56N 34°14' E 135°08'0 0.0
2017-Apr-23 00:23N 34°14' E 135°08'0 0.0
2017-Apr-22 23:59N 34°14' E 135°08'0 0.1
2017-Apr-22 23:26N 34°14' E 135°08'0 0.1
2017-Apr-22 22:56N 34°14' E 135°08'0 0.0
2017-Apr-22 22:30N 34°14' E 135°08'0 0.0
2017-Apr-22 22:00N 34°14' E 135°08'0 0.0
2017-Apr-22 21:30N 34°14' E 135°08'0 0.0
2017-Apr-22 21:00N 34°14' E 135°08'0 0.0
2017-Apr-22 20:30N 34°14' E 135°08'0 0.0
2017-Apr-22 20:00N 34°14' E 135°08'0 0.1
2017-Apr-22 19:30N 34°14' E 135°08'0 0.1
2017-Apr-22 19:00N 34°14' E 135°08'0 0.0
2017-Apr-22 18:30N 34°14' E 135°08'0 0.0
2017-Apr-22 18:00N 34°14' E 135°08'0 0.1
2017-Apr-22 17:30N 34°14' E 135°08'0 0.1
2017-Apr-22 17:00N 34°14' E 135°08'0 0.0
2017-Apr-22 16:30N 34°14' E 135°08'0 0.1
2017-Apr-22 16:00N 34°14' E 135°08'0 0.1
2017-Apr-22 15:31N 34°14' E 135°08'2 4.9
2017-Apr-22 15:01N 34°14' E 135°05'810.3
2017-Apr-22 14:12N 34°21' E 134°59'913.3
2017-Apr-22 13:29N 34°31' E 135°02'612.3
2017-Apr-22 13:01N 34°36' E 135°02'612.0
2017-Apr-22 12:29N 34°37' E 134°54'5 0.2
2017-Apr-21 11:07N 34°39' E 134°48'213.7
2017-Apr-21 11:00N 34°38' E 134°50'713.4
2017-Apr-21 10:28N 34°38' E 134°59'613.5
2017-Apr-21 10:00N 34°35' E 135°06'713.8
2017-Apr-21 09:30N 34°36' E 135°14'713.3
2017-Apr-21 09:00N 34°38' E 135°22'4 8.7
2017-Apr-21 08:30N 34°40' E 135°27'0 0.1
2017-Apr-21 07:49N 34°40' E 135°27'0 0.0
2017-Apr-21 07:25N 34°40' E 135°27'0 0.0
2017-Apr-21 06:49N 34°40' E 135°27'0 0.0
2017-Apr-21 06:13N 34°40' E 135°27'0 0.0
2017-Apr-21 05:55N 34°40' E 135°27'0 0.0
2017-Apr-21 05:19N 34°40' E 135°27'0 0.0
2017-Apr-21 04:55N 34°40' E 135°27'0 0.0
2017-Apr-21 04:19N 34°40' E 135°27'0 0.0
2017-Apr-21 03:55N 34°40' E 135°27'0 0.0
2017-Apr-21 03:13N 34°40' E 135°27'0 0.0
2017-Apr-21 02:55N 34°40' E 135°27'0 0.0
2017-Apr-21 02:25N 34°40' E 135°27'0 0.0
2017-Apr-21 01:49N 34°40' E 135°27'0 0.0
2017-Apr-21 01:25N 34°40' E 135°27'0 0.0
2017-Apr-21 00:55N 34°40' E 135°27'0 0.0
2017-Apr-21 00:19N 34°40' E 135°27'0 0.0
2017-Apr-20 23:55N 34°40' E 135°27'0 0.0
2017-Apr-20 23:25N 34°40' E 135°27'0 0.0
2017-Apr-20 22:49N 34°40' E 135°27'1 2.9
2017-Apr-20 22:30N 34°40' E 135°26'4 8.2
2017-Apr-20 22:00N 34°37' E 135°22'2 3.8
2017-Apr-20 21:21N 34°36' E 135°19'0 0.0
2017-Apr-20 20:45N 34°36' E 135°19'0 0.0
2017-Apr-20 20:21N 34°36' E 135°19'1 2.4
2017-Apr-20 20:00N 34°35' E 135°19'611.6
2017-Apr-20 19:30N 34°31' E 135°14'712.7
2017-Apr-20 18:59N 34°26' E 135°09'613.0
2017-Apr-20 18:30N 34°22' E 135°04'612.1
2017-Apr-20 17:59N 34°16' E 134°60'612.1
2017-Apr-20 17:30N 34°14' E 135°06'1 2.3
2017-Apr-20 17:00N 34°14' E 135°08'0 0.1
2017-Apr-20 16:30N 34°14' E 135°08'0 0.1
2017-Apr-20 16:00N 34°14' E 135°08'0 0.1
2017-Apr-20 15:30N 34°14' E 135°08'0 0.1
2017-Apr-20 15:00N 34°14' E 135°08'0 0.0
2017-Apr-20 14:21N 34°14' E 135°08'0 0.0
2017-Apr-20 13:30N 34°14' E 135°08'0 0.0
2017-Apr-20 13:00N 34°14' E 135°08'0 0.0
2017-Apr-20 12:30N 34°14' E 135°08'0 0.0
2017-Apr-20 11:54N 34°14' E 135°08'0 0.0
2017-Apr-20 11:24N 34°14' E 135°08'0 0.0
2017-Apr-20 11:00N 34°14' E 135°08'0 0.0
2017-Apr-20 10:30N 34°14' E 135°08'0 0.0
2017-Apr-20 10:00N 34°14' E 135°08'2 4.1
2017-Apr-20 09:30N 34°13' E 135°06'3 5.4
2017-Apr-20 09:00N 34°11' E 135°07'0 0.1
2017-Apr-20 08:30N 34°11' E 135°07'0 0.1
2017-Apr-20 07:57N 34°11' E 135°07'0 0.1
2017-Apr-20 07:30N 34°11' E 135°07'2 3.5
2017-Apr-20 07:00N 34°10' E 135°05'613.0
2017-Apr-20 06:31N 34°04' E 135°01'714.0
2017-Apr-20 06:01N 33°57' E 135°00'23410.4
2017-Apr-19 07:31N 35°00' E 139°34'013.9
2017-Apr-19 07:30N 35°00' E 139°34'612.4
2017-Apr-19 07:00N 35°04' E 139°39'611.7
2017-Apr-19 06:30N 35°09' E 139°44'611.8
2017-Apr-19 06:00N 35°14' E 139°46'612.2
2017-Apr-19 05:30N 35°20' E 139°43'612.2
2017-Apr-19 05:01N 35°25' E 139°45'713.1
2017-Apr-19 04:30N 35°30' E 139°51'4 7.8
2017-Apr-19 03:58N 35°34' E 139°51'0 0.1
2017-Apr-19 03:30N 35°34' E 139°51'0 0.0
2017-Apr-19 03:00N 35°34' E 139°51'0 0.1
2017-Apr-19 02:30N 35°34' E 139°51'0 0.1
2017-Apr-19 01:59N 35°34' E 139°51'0 0.1
2017-Apr-19 01:30N 35°34' E 139°51'0 0.0
2017-Apr-19 01:00N 35°34' E 139°51'0 0.1
2017-Apr-19 00:29N 35°34' E 139°51'0 0.1
2017-Apr-18 23:59N 35°34' E 139°51'0 0.0
2017-Apr-18 23:29N 35°34' E 139°51'0 0.0
2017-Apr-18 22:59N 35°34' E 139°51'0 0.0
2017-Apr-18 22:29N 35°34' E 139°51'0 0.0
2017-Apr-18 21:59N 35°34' E 139°51'0 0.1
2017-Apr-18 21:29N 35°34' E 139°51'0 0.1
2017-Apr-18 20:59N 35°34' E 139°51'0 0.0
2017-Apr-18 20:29N 35°34' E 139°51'0 0.0
2017-Apr-18 19:56N 35°34' E 139°51'0 0.0
2017-Apr-18 19:29N 35°34' E 139°51'0 0.0
2017-Apr-18 18:59N 35°34' E 139°51'0 0.1
2017-Apr-18 18:29N 35°34' E 139°51'0 0.0
2017-Apr-18 17:59N 35°34' E 139°51'0 0.0
2017-Apr-18 17:29N 35°34' E 139°51'0 0.0
2017-Apr-18 16:59N 35°34' E 139°51'0 0.0
2017-Apr-18 16:29N 35°34' E 139°51'0 0.0
2017-Apr-18 15:59N 35°34' E 139°51'0 0.0
2017-Apr-18 15:29N 35°34' E 139°51'0 0.0
2017-Apr-18 14:59N 35°34' E 139°51'0 0.0
2017-Apr-18 14:29N 35°34' E 139°51'0 0.0
2017-Apr-18 13:26N 35°34' E 139°51'0 0.0
2017-Apr-18 12:59N 35°34' E 139°51'0 0.0
2017-Apr-18 12:30N 35°34' E 139°51'0 0.0
2017-Apr-18 11:59N 35°34' E 139°51'0 0.1
2017-Apr-18 11:21N 35°34' E 139°51'0 0.0
2017-Apr-18 11:00N 35°34' E 139°51'0 0.1
2017-Apr-18 10:28N 35°34' E 139°51'0 0.0
2017-Apr-18 10:00N 35°34' E 139°51'0 0.0
2017-Apr-18 09:30N 35°34' E 139°51'0 0.0
2017-Apr-18 08:59N 35°34' E 139°51'0 0.0
2017-Apr-18 08:30N 35°34' E 139°51'0 0.1
2017-Apr-18 07:59N 35°34' E 139°51'0 0.0
2017-Apr-18 07:30N 35°34' E 139°51'0 0.1
2017-Apr-18 07:00N 35°34' E 139°51'0 0.0
2017-Apr-18 06:30N 35°34' E 139°51'0 0.0
2017-Apr-18 06:00N 35°34' E 139°51'0 0.0
2017-Apr-18 05:30N 35°34' E 139°51'0 0.0
2017-Apr-18 04:57N 35°34' E 139°51'0 0.0
2017-Apr-18 04:30N 35°34' E 139°51'0 0.0
2017-Apr-18 04:01N 35°34' E 139°51'0 0.0
2017-Apr-18 03:30N 35°34' E 139°51'0 0.0
2017-Apr-18 03:00N 35°34' E 139°51'0 0.0
2017-Apr-18 02:29N 35°34' E 139°51'0 0.0
2017-Apr-18 02:00N 35°34' E 139°51'0 0.0
2017-Apr-18 01:30N 35°34' E 139°51'0 0.1
2017-Apr-18 00:57N 35°34' E 139°51'0 0.1
2017-Apr-18 00:28N 35°34' E 139°51'0 0.0
2017-Apr-17 23:53N 35°34' E 139°51'0 0.1
2017-Apr-17 23:30N 35°34' E 139°51'0 0.0
2017-Apr-17 23:00N 35°34' E 139°51'0 0.1
2017-Apr-17 22:29N 35°34' E 139°51'0 0.1
2017-Apr-17 21:57N 35°34' E 139°51'0 0.1
2017-Apr-17 21:30N 35°34' E 139°51'0 0.0
2017-Apr-17 20:55N 35°34' E 139°51'0 0.1
2017-Apr-17 20:30N 35°34' E 139°51'0 0.0
2017-Apr-17 19:58N 35°34' E 139°51'0 0.0
2017-Apr-17 19:30N 35°34' E 139°51'0 0.0
2017-Apr-17 18:54N 35°34' E 139°51'0 0.1
2017-Apr-17 18:22N 35°34' E 139°51'0 0.0
2017-Apr-17 18:00N 35°34' E 139°51'0 0.1
2017-Apr-17 17:29N 35°34' E 139°51'0 0.0
2017-Apr-17 16:59N 35°34' E 139°51'0 0.1
2017-Apr-17 16:27N 35°34' E 139°51'0 0.1
2017-Apr-17 16:00N 35°34' E 139°51'0 0.0
2017-Apr-17 15:27N 35°34' E 139°51'0 0.1
2017-Apr-17 14:48N 35°34' E 139°51'0 0.0
2017-Apr-17 14:00N 35°34' E 139°51'0 0.0
2017-Apr-17 13:30N 35°34' E 139°51'0 0.1
2017-Apr-17 12:59N 35°34' E 139°51'0 0.1
2017-Apr-17 12:29N 35°34' E 139°51'0 0.0
2017-Apr-17 11:55N 35°34' E 139°51'0 0.0
2017-Apr-17 11:29N 35°34' E 139°51'0 0.0
2017-Apr-17 10:59N 35°34' E 139°51'0 0.0
2017-Apr-17 10:29N 35°34' E 139°51'0 0.0
2017-Apr-17 10:00N 35°34' E 139°51'0 0.0
2017-Apr-17 09:30N 35°34' E 139°51'0 0.1
2017-Apr-17 09:01N 35°34' E 139°51'2 3.3
2017-Apr-17 08:30N 35°33' E 139°52'612.4
2017-Apr-17 08:00N 35°27' E 139°48'612.5
2017-Apr-17 07:30N 35°27' E 139°41'2 2.9
2017-Apr-17 06:56N 35°29' E 139°40'0 0.0
2017-Apr-17 06:29N 35°29' E 139°40'0 0.0
2017-Apr-17 05:59N 35°29' E 139°40'0 0.0
2017-Apr-17 05:29N 35°29' E 139°40'0 0.0
2017-Apr-17 04:56N 35°29' E 139°40'0 0.0
2017-Apr-17 04:29N 35°29' E 139°40'0 0.0
2017-Apr-17 03:59N 35°29' E 139°40'0 0.0
2017-Apr-17 03:29N 35°29' E 139°40'0 0.0
2017-Apr-17 02:59N 35°29' E 139°40'  
Track history (hours):
 
Tides and Currents Weather Stations Pressure Air Temp Water Temp Dewpoint Dewpoint Depression Visibility Wind Speed Wind Dir Waves Ship Positions

Taiki Maru

Last reported at 2017-Apr-27 02:53 UTC. Time now 2017-Apr-29 05:36 UTC.
Position N 34°06' E 135°02'.

Length 93 m; draft 7.2 m.

Type: Cargo ship. MMSI: 431300622.

Date/timePositionNaut miles runAvg speedWind from/ knotsBaromVisibWave heightAir tempDewpointWater temp
2017-Apr-27 02:53N 34°06' E 135°02'512.3
2017-Apr-27 02:30N 34°10' E 135°05'1 3.0
2017-Apr-27 02:00N 34°10' E 135°07'0 0.1
2017-Apr-27 01:30N 34°10' E 135°07'0 0.2
2017-Apr-27 01:00N 34°10' E 135°07'4 7.6
2017-Apr-27 00:31N 34°14' E 135°05'2 4.0
2017-Apr-26 23:59N 34°14' E 135°08'0 0.1
2017-Apr-26 23:29N 34°14' E 135°08'0 0.1
2017-Apr-26 22:59N 34°14' E 135°08'0 0.0
2017-Apr-26 22:29N 34°14' E 135°08'0 0.0
2017-Apr-26 21:59N 34°14' E 135°08'0 0.0
2017-Apr-26 21:29N 34°14' E 135°08'0 0.0
2017-Apr-26 20:59N 34°14' E 135°08'0 0.0
2017-Apr-26 20:29N 34°14' E 135°08'0 0.0
2017-Apr-26 19:59N 34°14' E 135°08'0 0.0
2017-Apr-26 19:29N 34°14' E 135°08'0 0.0
2017-Apr-26 18:59N 34°14' E 135°08'0 0.0
2017-Apr-26 18:29N 34°14' E 135°08'0 0.0
2017-Apr-26 17:59N 34°14' E 135°08'0 0.0
2017-Apr-26 17:29N 34°14' E 135°08'0 0.0
2017-Apr-26 16:59N 34°14' E 135°08'0 0.0
2017-Apr-26 16:30N 34°14' E 135°08'1 1.5
2017-Apr-26 16:01N 34°14' E 135°07'3 6.6
2017-Apr-26 15:30N 34°11' E 135°07'0 0.0
2017-Apr-26 14:59N 34°11' E 135°07'0 0.0
2017-Apr-26 14:29N 34°11' E 135°07'0 0.0
2017-Apr-26 13:29N 34°11' E 135°07'0 0.1
2017-Apr-26 12:59N 34°11' E 135°07'0 0.1
2017-Apr-26 12:29N 34°11' E 135°07'0 0.0
2017-Apr-26 11:53N 34°11' E 135°07'0 0.0
2017-Apr-26 11:26N 34°11' E 135°07'0 0.0
2017-Apr-26 10:59N 34°11' E 135°07'0 0.0
2017-Apr-26 10:29N 34°11' E 135°07'0 0.0
2017-Apr-26 09:56N 34°11' E 135°07'0 0.1
2017-Apr-26 09:26N 34°11' E 135°07'0 0.0
2017-Apr-26 09:00N 34°11' E 135°07'0 0.8
2017-Apr-26 08:30N 34°11' E 135°06'612.3
2017-Apr-26 08:00N 34°15' E 135°00'1413.2
2017-Apr-26 06:58N 34°28' E 135°02'613.1
2017-Apr-26 06:30N 34°34' E 135°03'613.1
2017-Apr-26 06:00N 34°36' E 134°56'  
2017-Apr-23 05:35N 34°38' E 134°60'110.4
2017-Apr-23 05:29N 34°37' E 135°01'4 9.3
2017-Apr-23 05:00N 34°35' E 135°05'611.5
2017-Apr-23 04:30N 34°29' E 135°04'711.6
2017-Apr-23 03:56N 34°23' E 135°02'710.5
2017-Apr-23 03:17N 34°16' E 134°59'310.9
2017-Apr-23 03:01N 34°15' E 135°03'4 8.7
2017-Apr-23 02:31N 34°14' E 135°08'0 0.1
2017-Apr-23 01:59N 34°14' E 135°08'0 0.1
2017-Apr-23 01:29N 34°14' E 135°08'0 0.1
2017-Apr-23 00:56N 34°14' E 135°08'0 0.0
2017-Apr-23 00:23N 34°14' E 135°08'0 0.0
2017-Apr-22 23:59N 34°14' E 135°08'0 0.1
2017-Apr-22 23:26N 34°14' E 135°08'0 0.1
2017-Apr-22 22:56N 34°14' E 135°08'0 0.0
2017-Apr-22 22:30N 34°14' E 135°08'0 0.0
2017-Apr-22 22:00N 34°14' E 135°08'0 0.0
2017-Apr-22 21:30N 34°14' E 135°08'0 0.0
2017-Apr-22 21:00N 34°14' E 135°08'0 0.0
2017-Apr-22 20:30N 34°14' E 135°08'0 0.0
2017-Apr-22 20:00N 34°14' E 135°08'0 0.1
2017-Apr-22 19:30N 34°14' E 135°08'0 0.1
2017-Apr-22 19:00N 34°14' E 135°08'0 0.0
2017-Apr-22 18:30N 34°14' E 135°08'0 0.0
2017-Apr-22 18:00N 34°14' E 135°08'0 0.1
2017-Apr-22 17:30N 34°14' E 135°08'0 0.1
2017-Apr-22 17:00N 34°14' E 135°08'0 0.0
2017-Apr-22 16:30N 34°14' E 135°08'0 0.1
2017-Apr-22 16:00N 34°14' E 135°08'0 0.1
2017-Apr-22 15:31N 34°14' E 135°08'2 4.9
2017-Apr-22 15:01N 34°14' E 135°05'810.3
2017-Apr-22 14:12N 34°21' E 134°59'913.3
2017-Apr-22 13:29N 34°31' E 135°02'612.3
2017-Apr-22 13:01N 34°36' E 135°02'612.0
2017-Apr-22 12:29N 34°37' E 134°54'5 0.2
2017-Apr-21 11:07N 34°39' E 134°48'213.7
2017-Apr-21 11:00N 34°38' E 134°50'713.4
2017-Apr-21 10:28N 34°38' E 134°59'613.5
2017-Apr-21 10:00N 34°35' E 135°06'713.8
2017-Apr-21 09:30N 34°36' E 135°14'713.3
2017-Apr-21 09:00N 34°38' E 135°22'4 8.7
2017-Apr-21 08:30N 34°40' E 135°27'0 0.1
2017-Apr-21 07:49N 34°40' E 135°27'0 0.0
2017-Apr-21 07:25N 34°40' E 135°27'0 0.0
2017-Apr-21 06:49N 34°40' E 135°27'0 0.0
2017-Apr-21 06:13N 34°40' E 135°27'0 0.0
2017-Apr-21 05:55N 34°40' E 135°27'0 0.0
2017-Apr-21 05:19N 34°40' E 135°27'0 0.0
2017-Apr-21 04:55N 34°40' E 135°27'0 0.0
2017-Apr-21 04:19N 34°40' E 135°27'0 0.0
2017-Apr-21 03:55N 34°40' E 135°27'0 0.0
2017-Apr-21 03:13N 34°40' E 135°27'0 0.0
2017-Apr-21 02:55N 34°40' E 135°27'0 0.0
2017-Apr-21 02:25N 34°40' E 135°27'0 0.0
2017-Apr-21 01:49N 34°40' E 135°27'0 0.0
2017-Apr-21 01:25N 34°40' E 135°27'0 0.0
2017-Apr-21 00:55N 34°40' E 135°27'0 0.0
2017-Apr-21 00:19N 34°40' E 135°27'0 0.0
2017-Apr-20 23:55N 34°40' E 135°27'0 0.0
2017-Apr-20 23:25N 34°40' E 135°27'0 0.0
2017-Apr-20 22:49N 34°40' E 135°27'1 2.9
2017-Apr-20 22:30N 34°40' E 135°26'4 8.2
2017-Apr-20 22:00N 34°37' E 135°22'2 3.8
2017-Apr-20 21:21N 34°36' E 135°19'0 0.0
2017-Apr-20 20:45N 34°36' E 135°19'0 0.0
2017-Apr-20 20:21N 34°36' E 135°19'1 2.4
2017-Apr-20 20:00N 34°35' E 135°19'611.6
2017-Apr-20 19:30N 34°31' E 135°14'712.7
2017-Apr-20 18:59N 34°26' E 135°09'613.0
2017-Apr-20 18:30N 34°22' E 135°04'612.1
2017-Apr-20 17:59N 34°16' E 134°60'612.1
2017-Apr-20 17:30N 34°14' E 135°06'1 2.3
2017-Apr-20 17:00N 34°14' E 135°08'0 0.1
2017-Apr-20 16:30N 34°14' E 135°08'0 0.1
2017-Apr-20 16:00N 34°14' E 135°08'0 0.1
2017-Apr-20 15:30N 34°14' E 135°08'0 0.1
2017-Apr-20 15:00N 34°14' E 135°08'0 0.0
2017-Apr-20 14:21N 34°14' E 135°08'0 0.0
2017-Apr-20 13:30N 34°14' E 135°08'0 0.0
2017-Apr-20 13:00N 34°14' E 135°08'0 0.0
2017-Apr-20 12:30N 34°14' E 135°08'0 0.0
2017-Apr-20 11:54N 34°14' E 135°08'0 0.0
2017-Apr-20 11:24N 34°14' E 135°08'0 0.0
2017-Apr-20 11:00N 34°14' E 135°08'0 0.0
2017-Apr-20 10:30N 34°14' E 135°08'0 0.0
2017-Apr-20 10:00N 34°14' E 135°08'2 4.1
2017-Apr-20 09:30N 34°13' E 135°06'3 5.4
2017-Apr-20 09:00N 34°11' E 135°07'0 0.1
2017-Apr-20 08:30N 34°11' E 135°07'0 0.1
2017-Apr-20 07:57N 34°11' E 135°07'0 0.1
2017-Apr-20 07:30N 34°11' E 135°07'2 3.5
2017-Apr-20 07:00N 34°10' E 135°05'613.0
2017-Apr-20 06:31N 34°04' E 135°01'714.0
2017-Apr-20 06:01N 33°57' E 135°00'23410.4
2017-Apr-19 07:31N 35°00' E 139°34'013.9
2017-Apr-19 07:30N 35°00' E 139°34'612.4
2017-Apr-19 07:00N 35°04' E 139°39'611.7
2017-Apr-19 06:30N 35°09' E 139°44'611.8
2017-Apr-19 06:00N 35°14' E 139°46'612.2
2017-Apr-19 05:30N 35°20' E 139°43'612.2
2017-Apr-19 05:01N 35°25' E 139°45'713.1
2017-Apr-19 04:30N 35°30' E 139°51'4 7.8
2017-Apr-19 03:58N 35°34' E 139°51'0 0.1
2017-Apr-19 03:30N 35°34' E 139°51'0 0.0
2017-Apr-19 03:00N 35°34' E 139°51'0 0.1
2017-Apr-19 02:30N 35°34' E 139°51'0 0.1
2017-Apr-19 01:59N 35°34' E 139°51'0 0.1
2017-Apr-19 01:30N 35°34' E 139°51'0 0.0
2017-Apr-19 01:00N 35°34' E 139°51'0 0.1
2017-Apr-19 00:29N 35°34' E 139°51'0 0.1
2017-Apr-18 23:59N 35°34' E 139°51'0 0.0
2017-Apr-18 23:29N 35°34' E 139°51'0 0.0
2017-Apr-18 22:59N 35°34' E 139°51'0 0.0
2017-Apr-18 22:29N 35°34' E 139°51'0 0.0
2017-Apr-18 21:59N 35°34' E 139°51'0 0.1
2017-Apr-18 21:29N 35°34' E 139°51'0 0.1
2017-Apr-18 20:59N 35°34' E 139°51'0 0.0
2017-Apr-18 20:29N 35°34' E 139°51'0 0.0
2017-Apr-18 19:56N 35°34' E 139°51'0 0.0
2017-Apr-18 19:29N 35°34' E 139°51'0 0.0
2017-Apr-18 18:59N 35°34' E 139°51'0 0.1
2017-Apr-18 18:29N 35°34' E 139°51'0 0.0
2017-Apr-18 17:59N 35°34' E 139°51'0 0.0
2017-Apr-18 17:29N 35°34' E 139°51'0 0.0
2017-Apr-18 16:59N 35°34' E 139°51'0 0.0
2017-Apr-18 16:29N 35°34' E 139°51'0 0.0
2017-Apr-18 15:59N 35°34' E 139°51'0 0.0
2017-Apr-18 15:29N 35°34' E 139°51'0 0.0
2017-Apr-18 14:59N 35°34' E 139°51'0 0.0
2017-Apr-18 14:29N 35°34' E 139°51'0 0.0
2017-Apr-18 13:26N 35°34' E 139°51'0 0.0
2017-Apr-18 12:59N 35°34' E 139°51'0 0.0
2017-Apr-18 12:30N 35°34' E 139°51'0 0.0
2017-Apr-18 11:59N 35°34' E 139°51'0 0.1
2017-Apr-18 11:21N 35°34' E 139°51'0 0.0
2017-Apr-18 11:00N 35°34' E 139°51'0 0.1
2017-Apr-18 10:28N 35°34' E 139°51'0 0.0
2017-Apr-18 10:00N 35°34' E 139°51'0 0.0
2017-Apr-18 09:30N 35°34' E 139°51'0 0.0
2017-Apr-18 08:59N 35°34' E 139°51'0 0.0
2017-Apr-18 08:30N 35°34' E 139°51'0 0.1
2017-Apr-18 07:59N 35°34' E 139°51'0 0.0
2017-Apr-18 07:30N 35°34' E 139°51'0 0.1
2017-Apr-18 07:00N 35°34' E 139°51'0 0.0
2017-Apr-18 06:30N 35°34' E 139°51'0 0.0
2017-Apr-18 06:00N 35°34' E 139°51'0 0.0
2017-Apr-18 05:30N 35°34' E 139°51'0 0.0
2017-Apr-18 04:57N 35°34' E 139°51'0 0.0
2017-Apr-18 04:30N 35°34' E 139°51'0 0.0
2017-Apr-18 04:01N 35°34' E 139°51'0 0.0
2017-Apr-18 03:30N 35°34' E 139°51'0 0.0
2017-Apr-18 03:00N 35°34' E 139°51'0 0.0
2017-Apr-18 02:29N 35°34' E 139°51'0 0.0
2017-Apr-18 02:00N 35°34' E 139°51'0 0.0
2017-Apr-18 01:30N 35°34' E 139°51'0 0.1
2017-Apr-18 00:57N 35°34' E 139°51'0 0.1
2017-Apr-18 00:28N 35°34' E 139°51'0 0.0
2017-Apr-17 23:53N 35°34' E 139°51'0 0.1
2017-Apr-17 23:30N 35°34' E 139°51'0 0.0
2017-Apr-17 23:00N 35°34' E 139°51'0 0.1
2017-Apr-17 22:29N 35°34' E 139°51'0 0.1
2017-Apr-17 21:57N 35°34' E 139°51'0 0.1
2017-Apr-17 21:30N 35°34' E 139°51'0 0.0
2017-Apr-17 20:55N 35°34' E 139°51'0 0.1
2017-Apr-17 20:30N 35°34' E 139°51'0 0.0
2017-Apr-17 19:58N 35°34' E 139°51'0 0.0
2017-Apr-17 19:30N 35°34' E 139°51'0 0.0
2017-Apr-17 18:54N 35°34' E 139°51'0 0.1
2017-Apr-17 18:22N 35°34' E 139°51'0 0.0
2017-Apr-17 18:00N 35°34' E 139°51'0 0.1
2017-Apr-17 17:29N 35°34' E 139°51'0 0.0
2017-Apr-17 16:59N 35°34' E 139°51'0 0.1
2017-Apr-17 16:27N 35°34' E 139°51'0 0.1
2017-Apr-17 16:00N 35°34' E 139°51'0 0.0
2017-Apr-17 15:27N 35°34' E 139°51'0 0.1
2017-Apr-17 14:48N 35°34' E 139°51'0 0.0
2017-Apr-17 14:00N 35°34' E 139°51'0 0.0
2017-Apr-17 13:30N 35°34' E 139°51'0 0.1
2017-Apr-17 12:59N 35°34' E 139°51'0 0.1
2017-Apr-17 12:29N 35°34' E 139°51'0 0.0
2017-Apr-17 11:55N 35°34' E 139°51'0 0.0
2017-Apr-17 11:29N 35°34' E 139°51'0 0.0
2017-Apr-17 10:59N 35°34' E 139°51'0 0.0
2017-Apr-17 10:29N 35°34' E 139°51'0 0.0
2017-Apr-17 10:00N 35°34' E 139°51'0 0.0
2017-Apr-17 09:30N 35°34' E 139°51'0 0.1
2017-Apr-17 09:01N 35°34' E 139°51'2 3.3
2017-Apr-17 08:30N 35°33' E 139°52'612.4
2017-Apr-17 08:00N 35°27' E 139°48'612.5
2017-Apr-17 07:30N 35°27' E 139°41'2 2.9
2017-Apr-17 06:56N 35°29' E 139°40'0 0.0
2017-Apr-17 06:29N 35°29' E 139°40'0 0.0
2017-Apr-17 05:59N 35°29' E 139°40'0 0.0
2017-Apr-17 05:29N 35°29' E 139°40'0 0.0
2017-Apr-17 04:56N 35°29' E 139°40'0 0.0
2017-Apr-17 04:29N 35°29' E 139°40'0 0.0
2017-Apr-17 03:59N 35°29' E 139°40'0 0.0
2017-Apr-17 03:29N 35°29' E 139°40'0 0.0
2017-Apr-17 02:59N 35°29' E 139°40'  

Dump ship's entire track history